Latest Coastal Weather Observations for Bougainville Reef

IDQ60701

Issued at 9:02 am EST Sunday 24 July 2016 (issued every 10 minutes, with the page automatically refreshed every 10 minutes)

About coastal observations | Map of coastal stations | Coastal observations for QLD | Marine services | Other Formats
Station Details ID: 200840 Name: BOUGAINVILLE REEF Lat: -15.49 Lon: 147.12 Height: 0.0 m
Data from the previous 72 hours. | See also: Recent months for locations in Queensland
Date/Time
EST
Temp
°C
Wind Pressure Rain since
9am
mm
Weather Cloud Vis
km
Sea
Height
m
Swell
Dir  Spd
kts
Gust
kts
hPa Trend Height
m
Period
s
Dir
24/09:00am 24.9 SE 12 13 1014.8 - - - - - - - - -
24/08:30am 25.0 SE 12 15 1014.7 - - - - - - - - -
24/08:00am 24.8 SE 12 15 1014.2 - - - - - - - - -
24/07:30am 24.9 SE 13 15 1014.1 - - - - - - - - -
24/07:00am 24.7 ESE 13 15 1013.5 - - - - - - - - -
24/06:30am 24.7 ESE 12 15 1013.4 - - - - - - - - -
24/06:00am 24.6 SE 12 14 1012.9 - - - - - - - - -
24/05:30am 24.6 SE 12 15 1012.9 - - - - - - - - -
24/05:00am 24.6 SE 12 14 1012.5 - - - - - - - - -
24/04:30am 24.7 SE 11 13 1012.6 - - - - - - - - -
24/04:00am 24.8 SE 11 13 1012.6 - - - - - - - - -
24/03:30am 24.7 SE 12 14 1012.7 - - - - - - - - -
24/03:00am 24.6 SE 12 13 1012.7 - - - - - - - - -
24/02:30am 24.7 SE 13 15 1013.1 - - - - - - - - -
24/02:00am 24.9 SE 13 15 1013.2 - - - - - - - - -
24/01:30am 24.8 SE 13 16 1013.4 - - - - - - - - -
24/01:00am 24.8 ESE 14 16 1013.3 - - - - - - - - -
24/12:30am 25.0 ESE 15 19 1013.6 - - - - - - - - -
24/12:00am 25.0 ESE 14 16 1013.6 - - - - - - - - -
 
Date/Time
EST
Temp
°C
Wind Pressure Rain since
9am
mm
Weather Cloud Vis
km
Sea
Height
m
Swell
Dir  Spd
kts
Gust
kts
hPa Trend Height
m
Period
s
Dir
23/11:30pm 25.0 ESE 14 16 1013.7 - - - - - - - - -
23/11:00pm 24.9 ESE 15 18 1013.6 - - - - - - - - -
23/10:30pm 25.0 ESE 15 18 1013.7 - - - - - - - - -
23/10:00pm 25.1 ESE 15 16 1013.6 - - - - - - - - -
23/09:30pm 25.2 SE 15 17 1013.6 - - - - - - - - -
23/09:00pm 25.0 SE 13 15 1013.4 - - - - - - - - -
23/08:30pm 25.1 ESE 13 15 1013.4 - - - - - - - - -
23/08:00pm 25.1 ESE 14 18 1012.9 - - - - - - - - -
23/07:30pm 25.1 SE 14 17 1012.7 - - - - - - - - -
23/07:00pm 25.1 SE 14 16 1012.1 - - - - - - - - -
23/06:30pm 25.1 SE 14 16 1012.0 - - - - - - - - -
23/06:00pm 25.3 SE 14 16 1011.9 - - - - - - - - -
23/05:30pm 25.2 SE 14 17 1011.7 - - - - - - - - -
23/05:00pm 25.4 SE 14 16 1011.4 - - - - - - - - -
23/04:30pm 25.5 SE 14 16 1011.4 - - - - - - - - -
23/04:00pm 25.7 SE 13 15 1011.1 - - - - - - - - -
23/03:30pm 25.4 SE 14 16 1011.2 - - - - - - - - -
23/03:00pm 25.6 SE 13 15 1011.2 - - - - - - - - -
23/02:30pm 25.4 SE 14 16 1011.5 - - - - - - - - -
23/02:00pm 25.3 ESE 15 16 1011.9 - - - - - - - - -
23/01:30pm 25.6 ESE 16 18 1012.3 - - - - - - - - -
23/01:00pm 25.4 ESE 16 19 1012.7 - - - - - - - - -
23/12:30pm 25.3 ESE 17 19 1012.9 - - - - - - - - -
23/12:00pm 25.4 ESE 17 20 1013.1 - - - - - - - - -
23/11:30am 25.7 ESE 17 19 1013.4 - - - - - - - - -
23/11:00am 25.5 ESE 17 19 1013.6 - - - - - - - - -
23/10:30am 25.6 ESE 16 19 1014.0 - - - - - - - - -
23/10:00am 25.6 ESE 17 18 1014.1 - - - - - - - - -
23/09:30am 25.5 ESE 15 18 1014.1 - - - - - - - - -
23/09:00am 25.6 E 16 19 1014.1 - - - - - - - - -
23/08:30am 25.7 ESE 16 19 1014.1 - - - - - - - - -
23/08:00am 25.5 ESE 16 18 1013.8 - - - - - - - - -
23/07:30am 25.7 ESE 16 19 1013.8 - - - - - - - - -
23/07:00am 25.0 SE 17 17 1013.3 - - - - - - - - -
23/06:30am 24.7 SE 18 20 1013.2 - - - - - - - - -
23/06:00am 24.9 ESE 16 17 1012.5 - - - - - - - - -
23/05:30am 25.3 E 16 18 1012.4 - - - - - - - - -
23/05:00am 24.9 ESE 14 16 1012.2 - - - - - - - - -
23/04:30am 24.9 E 14 16 1012.2 - - - - - - - - -
23/04:00am 24.9 SSE 10 14 1011.9 - - - - - - - - -
23/03:30am 24.5 SE 10 12 1012.0 - - - - - - - - -
23/03:00am 24.8 SSE 13 19 1012.1 - - - - - - - - -
23/02:30am 24.6 SSE 13 15 1012.2 - - - - - - - - -
23/02:00am 24.6 SSE 14 17 1012.6 - - - - - - - - -
23/01:30am 25.0 SE 14 16 1012.7 - - - - - - - - -
23/01:00am 24.8 SSE 13 15 1013.0 - - - - - - - - -
23/12:30am 25.3 SE 11 13 1013.2 - - - - - - - - -
23/12:00am 25.2 SSE 13 14 1013.4 - - - - - - - - -
 
Date/Time
EST
Temp
°C
Wind Pressure Rain since
9am
mm
Weather Cloud Vis
km
Sea
Height
m
Swell
Dir  Spd
kts
Gust
kts
hPa Trend Height
m
Period
s
Dir
22/11:30pm 25.0 SSE 15 17 1013.7 - - - - - - - - -
22/11:00pm 25.1 SSE 15 18 1013.6 - - - - - - - - -
22/10:30pm 24.9 SSE 17 21 1013.7 - - - - - - - - -
22/10:00pm 24.7 SSE 16 16 1013.5 - - - - - - - - -
22/09:30pm 24.3 SSE 18 22 1013.5 - - - - - - - - -
22/09:00pm 25.0 SSE 16 19 1013.2 - - - - - - - - -
22/08:30pm 25.2 SSE 17 19 1013.2 - - - - - - - - -
22/08:00pm 25.2 SSE 18 19 1012.8 - - - - - - - - -
22/07:30pm 25.2 SSE 18 21 1012.7 - - - - - - - - -
22/07:00pm 25.1 SSE 19 21 1012.5 - - - - - - - - -
22/06:30pm 25.2 SSE 17 20 1012.5 - - - - - - - - -
22/06:00pm 25.2 SE 17 20 1012.2 - - - - - - - - -
22/05:30pm 25.1 SE 17 19 1012.2 - - - - - - - - -
22/05:00pm 25.3 SE 18 20 1012.0 - - - - - - - - -
22/04:30pm 25.2 SE 17 20 1012.0 - - - - - - - - -
22/04:00pm 25.3 SE 18 21 1011.8 - - - - - - - - -
22/03:30pm 25.4 SE 17 21 1012.0 - - - - - - - - -
22/03:00pm 25.5 SE 17 19 1012.2 - - - - - - - - -
22/02:30pm 25.4 SE 16 19 1012.3 - - - - - - - - -
22/02:00pm 25.1 SE 16 18 1012.5 - - - - - - - - -
22/01:30pm 25.1 SE 16 19 1013.1 - - - - - - - - -
22/01:00pm 25.4 SE 19 21 1013.5 - - - - - - - - -
22/12:30pm 25.3 SE 19 21 1013.8 - - - - - - - - -
22/12:00pm 25.3 SE 17 19 1014.3 - - - - - - - - -
22/11:30am 25.3 SE 17 20 1014.6 - - - - - - - - -
22/11:00am 25.3 SE 15 18 1014.9 - - - - - - - - -
22/10:30am 25.1 SE 16 18 1015.1 - - - - - - - - -
22/10:00am 25.2 SE 16 18 1015.2 - - - - - - - - -
22/09:30am 25.3 SE 16 19 1015.3 - - - - - - - - -
22/09:00am 25.1 SE 17 20 1015.0 - - - - - - - - -
22/08:30am 25.0 SE 16 19 1015.0 - - - - - - - - -
22/08:00am 25.1 ESE 18 20 1014.6 - - - - - - - - -
22/07:30am 25.3 ESE 16 19 1014.4 - - - - - - - - -
22/07:00am 24.9 SE 16 18 1013.8 - - - - - - - - -
22/06:30am 25.1 SE 17 20 1013.7 - - - - - - - - -
22/06:00am 24.9 ESE 18 20 1013.4 - - - - - - - - -
22/05:30am 25.1 ESE 18 21 1013.3 - - - - - - - - -
22/05:00am 25.2 ESE 19 22 1013.0 - - - - - - - - -
22/04:30am 25.0 ESE 21 23 1013.1 - - - - - - - - -
22/04:00am 25.2 ESE 20 24 1013.0 - - - - - - - - -
22/03:30am 25.1 ESE 22 25 1013.2 - - - - - - - - -
22/03:00am 25.2 ESE 21 25 1013.4 - - - - - - - - -
22/02:30am 25.0 ESE 23 27 1013.7 - - - - - - - - -
22/02:00am 25.1 ESE 22 21 1013.8 - - - - - - - - -
22/01:30am 25.3 ESE 22 25 1013.9 - - - - - - - - -
22/01:00am 25.6 ESE 23 27 1014.2 - - - - - - - - -
22/12:30am 25.3 ESE 20 24 1014.5 - - - - - - - - -
22/12:00am 25.7 ESE 21 26 1014.3 - - - - - - - - -
 
Date/Time
EST
Temp
°C
Wind Pressure Rain since
9am
mm
Weather Cloud Vis
km
Sea
Height
m
Swell
Dir  Spd
kts
Gust
kts
hPa Trend Height
m
Period
s
Dir
21/11:30pm 25.7 ESE 22 25 1014.4 - - - - - - - - -
21/11:00pm 25.7 ESE 23 26 1014.4 - - - - - - - - -
21/10:30pm 25.6 ESE 21 24 1014.7 - - - - - - - - -
21/10:00pm 25.8 ESE 22 25 1014.5 - - - - - - - - -
21/09:30pm 25.9 ESE 23 26 1014.6 - - - - - - - - -
21/09:00pm 25.4 ESE 20 25 1014.3 - - - - - - - - -
21/08:30pm 25.6 ESE 22 25 1014.2 - - - - - - - - -
21/08:00pm 25.1 ESE 20 26 1013.7 - - - - - - - - -
21/07:30pm 25.6 ESE 23 26 1013.7 - - - - - - - - -
21/07:00pm 25.5 ESE 22 26 1013.2 - - - - - - - - -
21/06:30pm 24.7 ESE 21 24 1013.3 - - - - - - - - -
21/06:00pm 23.7 ESE 18 18 1013.0 - - - - - - - - -
21/05:30pm 23.6 E 16 19 1012.9 - - - - - - - - -
21/05:20pm 23.8 E 19 23 1012.8 - - - - - - - - -
21/05:00pm 23.7 SE 22 25 1012.6 - - - - - - - - -
21/04:30pm 24.6 ESE 19 23 1012.4 - - - - - - - - -
21/04:00pm 24.5 SE 19 30 1011.9 - - - - - - - - -
21/03:49pm 25.2 SE 19 29 1012.1 - - - - - - - - -
21/03:30pm 25.7 ESE 18 20 1012.2 - - - - - - - - -
21/03:00pm 25.8 ESE 18 20 1012.3 - - - - - - - - -
21/02:30pm 25.6 ESE 18 20 1012.5 - - - - - - - - -
21/02:00pm 25.6 ESE 19 20 1012.7 - - - - - - - - -
21/01:30pm 25.5 ESE 19 22 1013.1 - - - - - - - - -
21/01:00pm 25.3 SE 17 19 1013.6 - - - - - - - - -
21/12:30pm 25.6 ESE 19 22 1013.9 - - - - - - - - -
21/12:00pm 25.1 ESE 17 19 1014.2 - - - - - - - - -
21/11:30am 24.8 SE 20 23 1014.6 - - - - - - - - -
21/11:00am 25.7 ESE 18 19 1014.8 - - - - - - - - -
21/10:30am 25.8 ESE 20 22 1015.1 - - - - - - - - -
21/10:00am 25.7 ESE 19 19 1015.1 - - - - - - - - -
21/09:30am 25.8 ESE 18 20 1015.1 - - - - - - - - -

Other Formats:

Comma delimited format used in spreadsheet applications
http://www.bom.gov.au/fwo/IDQ60701/IDQ60701.95288.axf

JavaScript Object Notation format (JSON) in row-major order
http://www.bom.gov.au/fwo/IDQ60701/IDQ60701.95288.json